sensor_id;sensor_type;location;lat;lon;timestamp;P1;durP1;ratioP1;P2;durP2;ratioP2
40997;SDS011;26740;45.944;12.480;2023-09-18T00:00:24;2.97;;;2.78;;
40997;SDS011;26740;45.944;12.480;2023-09-18T00:02:49;2.60;;;2.40;;
40997;SDS011;26740;45.944;12.480;2023-09-18T00:05:15;4.13;;;2.55;;
40997;SDS011;26740;45.944;12.480;2023-09-18T00:07:41;2.83;;;2.50;;
40997;SDS011;26740;45.944;12.480;2023-09-18T00:12:41;3.13;;;2.92;;
40997;SDS011;26740;45.944;12.480;2023-09-18T00:15:07;2.83;;;2.63;;
40997;SDS011;26740;45.944;12.480;2023-09-18T00:20:09;2.83;;;2.63;;
40997;SDS011;26740;45.944;12.480;2023-09-18T00:22:34;2.42;;;2.33;;
40997;SDS011;26740;45.944;12.480;2023-09-18T00:24:59;3.30;;;2.60;;
40997;SDS011;26740;45.944;12.480;2023-09-18T00:27:26;3.10;;;2.97;;
40997;SDS011;26740;45.944;12.480;2023-09-18T00:29:51;2.92;;;2.78;;
40997;SDS011;26740;45.944;12.480;2023-09-18T00:32:17;2.50;;;2.30;;
40997;SDS011;26740;45.944;12.480;2023-09-18T00:34:42;2.80;;;2.60;;
40997;SDS011;26740;45.944;12.480;2023-09-18T00:37:08;2.70;;;2.50;;
40997;SDS011;26740;45.944;12.480;2023-09-18T00:39:36;2.78;;;2.58;;
40997;SDS011;26740;45.944;12.480;2023-09-18T00:42:01;2.58;;;2.38;;
40997;SDS011;26740;45.944;12.480;2023-09-18T00:44:27;2.42;;;2.33;;
40997;SDS011;26740;45.944;12.480;2023-09-18T00:46:53;2.53;;;2.28;;
40997;SDS011;26740;45.944;12.480;2023-09-18T00:49:20;2.67;;;2.47;;
40997;SDS011;26740;45.944;12.480;2023-09-18T00:51:47;2.42;;;2.20;;
40997;SDS011;26740;45.944;12.480;2023-09-18T00:54:12;2.25;;;2.15;;
40997;SDS011;26740;45.944;12.480;2023-09-18T00:56:40;2.45;;;2.35;;
40997;SDS011;26740;45.944;12.480;2023-09-18T00:59:06;2.88;;;2.67;;
40997;SDS011;26740;45.944;12.480;2023-09-18T01:01:31;2.22;;;2.13;;
40997;SDS011;26740;45.944;12.480;2023-09-18T01:03:57;2.22;;;2.13;;
40997;SDS011;26740;45.944;12.480;2023-09-18T01:06:24;2.28;;;2.13;;
40997;SDS011;26740;45.944;12.480;2023-09-18T01:08:53;2.63;;;2.42;;
40997;SDS011;26740;45.944;12.480;2023-09-18T01:11:24;3.10;;;2.72;;
40997;SDS011;26740;45.944;12.480;2023-09-18T01:13:54;3.67;;;2.35;;
40997;SDS011;26740;45.944;12.480;2023-09-18T01:16:35;3.92;;;2.00;;
40997;SDS011;26740;45.944;12.480;2023-09-18T01:19:02;1.92;;;1.83;;
40997;SDS011;26740;45.944;12.480;2023-09-18T01:21:28;2.38;;;2.17;;
40997;SDS011;26740;45.944;12.480;2023-09-18T01:23:54;2.28;;;2.08;;
40997;SDS011;26740;45.944;12.480;2023-09-18T01:26:19;2.28;;;2.08;;
40997;SDS011;26740;45.944;12.480;2023-09-18T01:28:45;2.38;;;2.17;;
40997;SDS011;26740;45.944;12.480;2023-09-18T01:31:10;2.35;;;2.15;;
40997;SDS011;26740;45.944;12.480;2023-09-18T01:33:35;2.50;;;2.30;;
40997;SDS011;26740;45.944;12.480;2023-09-18T01:36:02;2.45;;;2.25;;
40997;SDS011;26740;45.944;12.480;2023-09-18T01:38:28;2.58;;;2.35;;
40997;SDS011;26740;45.944;12.480;2023-09-18T01:40:53;2.47;;;1.98;;
40997;SDS011;26740;45.944;12.480;2023-09-18T01:43:19;2.30;;;2.20;;
40997;SDS011;26740;45.944;12.480;2023-09-18T01:45:45;2.38;;;2.00;;
40997;SDS011;26740;45.944;12.480;2023-09-18T01:48:11;2.03;;;1.92;;
40997;SDS011;26740;45.944;12.480;2023-09-18T01:50:36;2.63;;;2.45;;
40997;SDS011;26740;45.944;12.480;2023-09-18T01:53:02;1.98;;;1.83;;
40997;SDS011;26740;45.944;12.480;2023-09-18T01:55:28;2.40;;;2.20;;
40997;SDS011;26740;45.944;12.480;2023-09-18T01:57:55;2.08;;;1.90;;
40997;SDS011;26740;45.944;12.480;2023-09-18T02:00:20;2.25;;;2.08;;
40997;SDS011;26740;45.944;12.480;2023-09-18T02:02:46;5.32;;;2.05;;
40997;SDS011;26740;45.944;12.480;2023-09-18T02:05:11;2.30;;;2.20;;
40997;SDS011;26740;45.944;12.480;2023-09-18T02:07:36;1.83;;;1.73;;
40997;SDS011;26740;45.944;12.480;2023-09-18T02:10:02;2.70;;;2.00;;
40997;SDS011;26740;45.944;12.480;2023-09-18T02:12:28;2.00;;;1.90;;
40997;SDS011;26740;45.944;12.480;2023-09-18T02:14:53;2.60;;;2.08;;
40997;SDS011;26740;45.944;12.480;2023-09-18T02:17:19;2.47;;;1.83;;
40997;SDS011;26740;45.944;12.480;2023-09-18T02:19:45;2.50;;;2.33;;
40997;SDS011;26740;45.944;12.480;2023-09-18T02:22:11;2.08;;;1.95;;
40997;SDS011;26740;45.944;12.480;2023-09-18T02:24:36;2.70;;;2.60;;
40997;SDS011;26740;45.944;12.480;2023-09-18T02:27:04;2.03;;;1.92;;
40997;SDS011;26740;45.944;12.480;2023-09-18T02:29:33;2.67;;;2.13;;
40997;SDS011;26740;45.944;12.480;2023-09-18T02:31:58;2.30;;;2.20;;
40997;SDS011;26740;45.944;12.480;2023-09-18T02:34:23;2.03;;;1.92;;
40997;SDS011;26740;45.944;12.480;2023-09-18T02:36:49;2.55;;;2.20;;
40997;SDS011;26740;45.944;12.480;2023-09-18T02:39:14;6.20;;;3.47;;
40997;SDS011;26740;45.944;12.480;2023-09-18T02:41:40;2.65;;;2.45;;
40997;SDS011;26740;45.944;12.480;2023-09-18T02:44:05;1.83;;;1.73;;
40997;SDS011;26740;45.944;12.480;2023-09-18T02:46:30;2.35;;;2.15;;
40997;SDS011;26740;45.944;12.480;2023-09-18T02:48:56;2.00;;;1.90;;
40997;SDS011;26740;45.944;12.480;2023-09-18T02:51:21;2.63;;;2.42;;
40997;SDS011;26740;45.944;12.480;2023-09-18T02:53:47;2.40;;;2.17;;
40997;SDS011;26740;45.944;12.480;2023-09-18T02:56:12;3.75;;;2.45;;
40997;SDS011;26740;45.944;12.480;2023-09-18T02:58:38;2.30;;;2.20;;
40997;SDS011;26740;45.944;12.480;2023-09-18T03:01:03;2.47;;;2.28;;
40997;SDS011;26740;45.944;12.480;2023-09-18T03:03:30;2.17;;;2.08;;
40997;SDS011;26740;45.944;12.480;2023-09-18T03:06:02;4.60;;;2.20;;
40997;SDS011;26740;45.944;12.480;2023-09-18T03:08:28;2.30;;;2.10;;
40997;SDS011;26740;45.944;12.480;2023-09-18T03:10:53;1.98;;;1.77;;
40997;SDS011;26740;45.944;12.480;2023-09-18T03:13:19;2.08;;;1.90;;
40997;SDS011;26740;45.944;12.480;2023-09-18T03:15:45;2.17;;;2.05;;
40997;SDS011;26740;45.944;12.480;2023-09-18T03:18:12;2.50;;;2.30;;
40997;SDS011;26740;45.944;12.480;2023-09-18T03:20:37;2.40;;;2.17;;
40997;SDS011;26740;45.944;12.480;2023-09-18T03:23:03;2.03;;;1.92;;
40997;SDS011;26740;45.944;12.480;2023-09-18T03:25:28;1.92;;;1.83;;
40997;SDS011;26740;45.944;12.480;2023-09-18T03:27:54;2.38;;;2.17;;
40997;SDS011;26740;45.944;12.480;2023-09-18T03:30:20;2.05;;;1.95;;
40997;SDS011;26740;45.944;12.480;2023-09-18T03:32:46;4.32;;;1.80;;
40997;SDS011;26740;45.944;12.480;2023-09-18T03:35:13;2.58;;;2.42;;
40997;SDS011;26740;45.944;12.480;2023-09-18T03:37:48;2.13;;;1.88;;
40997;SDS011;26740;45.944;12.480;2023-09-18T03:40:14;2.08;;;1.98;;
40997;SDS011;26740;45.944;12.480;2023-09-18T03:42:40;2.25;;;1.98;;
40997;SDS011;26740;45.944;12.480;2023-09-18T03:45:05;2.53;;;2.33;;
40997;SDS011;26740;45.944;12.480;2023-09-18T03:47:31;3.72;;;1.85;;
40997;SDS011;26740;45.944;12.480;2023-09-18T03:49:57;2.50;;;2.30;;
40997;SDS011;26740;45.944;12.480;2023-09-18T03:52:22;2.35;;;2.15;;
40997;SDS011;26740;45.944;12.480;2023-09-18T03:54:48;2.38;;;2.17;;
40997;SDS011;26740;45.944;12.480;2023-09-18T03:57:14;2.95;;;2.40;;
40997;SDS011;26740;45.944;12.480;2023-09-18T03:59:40;2.88;;;2.67;;
40997;SDS011;26740;45.944;12.480;2023-09-18T04:02:05;2.80;;;2.60;;
40997;SDS011;26740;45.944;12.480;2023-09-18T04:04:31;2.72;;;2.53;;
40997;SDS011;26740;45.944;12.480;2023-09-18T04:06:57;2.50;;;2.40;;
40997;SDS011;26740;45.944;12.480;2023-09-18T04:09:23;3.28;;;2.35;;
40997;SDS011;26740;45.944;12.480;2023-09-18T04:11:48;3.83;;;2.40;;
40997;SDS011;26740;45.944;12.480;2023-09-18T04:14:13;2.28;;;1.83;;
40997;SDS011;26740;45.944;12.480;2023-09-18T04:16:39;3.03;;;2.15;;
40997;SDS011;26740;45.944;12.480;2023-09-18T04:19:07;2.30;;;2.20;;
40997;SDS011;26740;45.944;12.480;2023-09-18T04:21:32;6.28;;;1.98;;
40997;SDS011;26740;45.944;12.480;2023-09-18T04:23:58;3.13;;;2.05;;
40997;SDS011;26740;45.944;12.480;2023-09-18T04:26:24;4.70;;;2.50;;
40997;SDS011;26740;45.944;12.480;2023-09-18T04:28:54;5.20;;;3.08;;
40997;SDS011;26740;45.944;12.480;2023-09-18T04:31:19;4.30;;;2.38;;
40997;SDS011;26740;45.944;12.480;2023-09-18T04:33:45;8.43;;;2.97;;
40997;SDS011;26740;45.944;12.480;2023-09-18T04:36:10;6.72;;;3.70;;
40997;SDS011;26740;45.944;12.480;2023-09-18T04:38:35;4.50;;;3.92;;
40997;SDS011;26740;45.944;12.480;2023-09-18T04:41:01;5.68;;;2.63;;
40997;SDS011;26740;45.944;12.480;2023-09-18T04:43:26;2.47;;;2.20;;
40997;SDS011;26740;45.944;12.480;2023-09-18T04:45:54;3.33;;;3.03;;
40997;SDS011;26740;45.944;12.480;2023-09-18T04:48:19;2.88;;;2.65;;
40997;SDS011;26740;45.944;12.480;2023-09-18T04:50:45;5.32;;;2.47;;
40997;SDS011;26740;45.944;12.480;2023-09-18T04:53:10;2.70;;;1.98;;
40997;SDS011;26740;45.944;12.480;2023-09-18T04:55:35;3.05;;;2.25;;
40997;SDS011;26740;45.944;12.480;2023-09-18T04:58:03;2.20;;;2.10;;
40997;SDS011;26740;45.944;12.480;2023-09-18T05:00:30;2.90;;;2.30;;
40997;SDS011;26740;45.944;12.480;2023-09-18T05:02:56;1.95;;;1.70;;
40997;SDS011;26740;45.944;12.480;2023-09-18T05:05:23;4.90;;;2.20;;
40997;SDS011;26740;45.944;12.480;2023-09-18T05:07:48;2.20;;;1.95;;
40997;SDS011;26740;45.944;12.480;2023-09-18T05:10:13;2.38;;;2.20;;
40997;SDS011;26740;45.944;12.480;2023-09-18T05:12:39;3.13;;;2.00;;
40997;SDS011;26740;45.944;12.480;2023-09-18T05:15:06;2.15;;;2.05;;
40997;SDS011;26740;45.944;12.480;2023-09-18T05:17:44;1.77;;;1.67;;
40997;SDS011;26740;45.944;12.480;2023-09-18T05:20:11;1.95;;;1.85;;
40997;SDS011;26740;45.944;12.480;2023-09-18T05:22:39;3.17;;;2.10;;
40997;SDS011;26740;45.944;12.480;2023-09-18T05:25:05;2.47;;;2.28;;
40997;SDS011;26740;45.944;12.480;2023-09-18T05:27:32;4.22;;;2.30;;
40997;SDS011;26740;45.944;12.480;2023-09-18T05:29:57;2.60;;;2.20;;
40997;SDS011;26740;45.944;12.480;2023-09-18T05:32:22;2.22;;;2.13;;
40997;SDS011;26740;45.944;12.480;2023-09-18T05:34:48;2.55;;;2.42;;
40997;SDS011;26740;45.944;12.480;2023-09-18T05:37:13;2.35;;;2.13;;
40997;SDS011;26740;45.944;12.480;2023-09-18T05:39:39;2.78;;;2.58;;
40997;SDS011;26740;45.944;12.480;2023-09-18T05:42:05;2.25;;;2.10;;
40997;SDS011;26740;45.944;12.480;2023-09-18T05:44:30;2.92;;;2.05;;
40997;SDS011;26740;45.944;12.480;2023-09-18T05:46:56;2.95;;;2.17;;
40997;SDS011;26740;45.944;12.480;2023-09-18T05:49:21;2.90;;;2.10;;
40997;SDS011;26740;45.944;12.480;2023-09-18T05:51:46;2.55;;;2.45;;
40997;SDS011;26740;45.944;12.480;2023-09-18T05:54:14;4.13;;;2.45;;
40997;SDS011;26740;45.944;12.480;2023-09-18T05:56:39;2.65;;;2.45;;
40997;SDS011;26740;45.944;12.480;2023-09-18T05:59:05;2.92;;;2.50;;
40997;SDS011;26740;45.944;12.480;2023-09-18T06:01:31;3.60;;;2.33;;
40997;SDS011;26740;45.944;12.480;2023-09-18T06:03:58;2.15;;;2.05;;
40997;SDS011;26740;45.944;12.480;2023-09-18T06:08:58;9.45;;;2.83;;
40997;SDS011;26740;45.944;12.480;2023-09-18T06:11:24;3.92;;;3.60;;
40997;SDS011;26740;45.944;12.480;2023-09-18T06:13:49;6.00;;;3.80;;
40997;SDS011;26740;45.944;12.480;2023-09-18T06:16:15;5.00;;;2.92;;
40997;SDS011;26740;45.944;12.480;2023-09-18T06:18:40;4.63;;;2.72;;
40997;SDS011;26740;45.944;12.480;2023-09-18T06:21:06;4.00;;;3.50;;
40997;SDS011;26740;45.944;12.480;2023-09-18T06:23:32;5.38;;;2.75;;
40997;SDS011;26740;45.944;12.480;2023-09-18T06:25:58;3.45;;;3.15;;
40997;SDS011;26740;45.944;12.480;2023-09-18T06:28:24;3.63;;;3.33;;
40997;SDS011;26740;45.944;12.480;2023-09-18T06:30:50;3.72;;;2.70;;
40997;SDS011;26740;45.944;12.480;2023-09-18T06:33:15;3.38;;;2.85;;
40997;SDS011;26740;45.944;12.480;2023-09-18T06:35:42;4.28;;;3.17;;
40997;SDS011;26740;45.944;12.480;2023-09-18T06:38:07;4.20;;;3.05;;
40997;SDS011;26740;45.944;12.480;2023-09-18T06:40:35;10.13;;;3.70;;
40997;SDS011;26740;45.944;12.480;2023-09-18T06:43:00;5.75;;;3.97;;
40997;SDS011;26740;45.944;12.480;2023-09-18T06:45:26;8.38;;;3.45;;
40997;SDS011;26740;45.944;12.480;2023-09-18T06:47:52;7.10;;;4.40;;
40997;SDS011;26740;45.944;12.480;2023-09-18T06:50:18;8.88;;;3.90;;
40997;SDS011;26740;45.944;12.480;2023-09-18T06:52:44;10.48;;;4.20;;
40997;SDS011;26740;45.944;12.480;2023-09-18T06:55:09;6.70;;;4.07;;
40997;SDS011;26740;45.944;12.480;2023-09-18T06:57:35;6.57;;;4.07;;
40997;SDS011;26740;45.944;12.480;2023-09-18T07:00:00;7.55;;;4.30;;
40997;SDS011;26740;45.944;12.480;2023-09-18T07:02:26;5.05;;;4.65;;
40997;SDS011;26740;45.944;12.480;2023-09-18T07:04:52;7.18;;;6.47;;
40997;SDS011;26740;45.944;12.480;2023-09-18T07:07:17;9.00;;;5.35;;
40997;SDS011;26740;45.944;12.480;2023-09-18T07:09:50;5.47;;;4.97;;
40997;SDS011;26740;45.944;12.480;2023-09-18T07:12:15;6.57;;;4.43;;
40997;SDS011;26740;45.944;12.480;2023-09-18T07:14:40;5.30;;;4.70;;
40997;SDS011;26740;45.944;12.480;2023-09-18T07:17:06;5.15;;;4.65;;
40997;SDS011;26740;45.944;12.480;2023-09-18T07:19:31;5.05;;;4.63;;
40997;SDS011;26740;45.944;12.480;2023-09-18T07:21:57;11.45;;;10.38;;
40997;SDS011;26740;45.944;12.480;2023-09-18T07:24:24;6.53;;;5.20;;
40997;SDS011;26740;45.944;12.480;2023-09-18T07:26:49;5.05;;;4.53;;
40997;SDS011;26740;45.944;12.480;2023-09-18T07:29:15;5.63;;;4.32;;
40997;SDS011;26740;45.944;12.480;2023-09-18T07:31:41;7.30;;;4.97;;
40997;SDS011;26740;45.944;12.480;2023-09-18T07:34:07;6.78;;;4.65;;
40997;SDS011;26740;45.944;12.480;2023-09-18T07:36:32;10.05;;;4.47;;
40997;SDS011;26740;45.944;12.480;2023-09-18T07:38:58;5.30;;;4.43;;
40997;SDS011;26740;45.944;12.480;2023-09-18T07:41:23;4.70;;;4.10;;
40997;SDS011;26740;45.944;12.480;2023-09-18T07:43:50;4.30;;;4.00;;
40997;SDS011;26740;45.944;12.480;2023-09-18T07:46:15;4.10;;;3.80;;
40997;SDS011;26740;45.944;12.480;2023-09-18T07:48:41;4.32;;;3.92;;
40997;SDS011;26740;45.944;12.480;2023-09-18T07:51:10;4.95;;;4.43;;
40997;SDS011;26740;45.944;12.480;2023-09-18T07:53:36;4.95;;;4.47;;
40997;SDS011;26740;45.944;12.480;2023-09-18T07:56:01;4.60;;;4.20;;
40997;SDS011;26740;45.944;12.480;2023-09-18T07:58:28;4.97;;;4.40;;
40997;SDS011;26740;45.944;12.480;2023-09-18T08:00:56;6.53;;;5.45;;
40997;SDS011;26740;45.944;12.480;2023-09-18T08:03:27;5.55;;;4.70;;
40997;SDS011;26740;45.944;12.480;2023-09-18T08:05:53;5.05;;;4.57;;
40997;SDS011;26740;45.944;12.480;2023-09-18T08:08:19;6.03;;;5.45;;
40997;SDS011;26740;45.944;12.480;2023-09-18T08:10:49;5.45;;;4.50;;
40997;SDS011;26740;45.944;12.480;2023-09-18T08:13:14;4.82;;;4.22;;
40997;SDS011;26740;45.944;12.480;2023-09-18T08:15:39;5.30;;;4.80;;
40997;SDS011;26740;45.944;12.480;2023-09-18T08:18:05;5.40;;;4.90;;
40997;SDS011;26740;45.944;12.480;2023-09-18T08:20:30;4.18;;;3.78;;
40997;SDS011;26740;45.944;12.480;2023-09-18T08:22:56;5.82;;;4.63;;
40997;SDS011;26740;45.944;12.480;2023-09-18T08:25:21;7.25;;;4.60;;
40997;SDS011;26740;45.944;12.480;2023-09-18T08:27:47;8.68;;;4.18;;
40997;SDS011;26740;45.944;12.480;2023-09-18T08:30:13;7.97;;;4.00;;
40997;SDS011;26740;45.944;12.480;2023-09-18T08:32:39;7.88;;;4.07;;
40997;SDS011;26740;45.944;12.480;2023-09-18T08:35:05;4.70;;;4.38;;
40997;SDS011;26740;45.944;12.480;2023-09-18T08:37:31;7.85;;;3.83;;
40997;SDS011;26740;45.944;12.480;2023-09-18T08:39:56;4.00;;;3.70;;
40997;SDS011;26740;45.944;12.480;2023-09-18T08:42:22;4.32;;;3.85;;
40997;SDS011;26740;45.944;12.480;2023-09-18T08:44:51;4.72;;;4.22;;
40997;SDS011;26740;45.944;12.480;2023-09-18T08:47:17;4.38;;;3.50;;
40997;SDS011;26740;45.944;12.480;2023-09-18T08:49:44;4.03;;;3.63;;
40997;SDS011;26740;45.944;12.480;2023-09-18T08:52:10;6.68;;;4.00;;
40997;SDS011;26740;45.944;12.480;2023-09-18T08:54:35;4.40;;;4.07;;
40997;SDS011;26740;45.944;12.480;2023-09-18T08:57:01;3.90;;;3.60;;
40997;SDS011;26740;45.944;12.480;2023-09-18T08:59:26;6.15;;;3.78;;
40997;SDS011;26740;45.944;12.480;2023-09-18T09:04:27;6.15;;;4.15;;
40997;SDS011;26740;45.944;12.480;2023-09-18T09:07:02;4.07;;;2.92;;
40997;SDS011;26740;45.944;12.480;2023-09-18T09:09:28;3.95;;;3.63;;
40997;SDS011;26740;45.944;12.480;2023-09-18T09:11:54;5.07;;;3.38;;
40997;SDS011;26740;45.944;12.480;2023-09-18T09:14:20;3.47;;;3.17;;
40997;SDS011;26740;45.944;12.480;2023-09-18T09:16:53;2.78;;;2.35;;
40997;SDS011;26740;45.944;12.480;2023-09-18T09:19:27;3.22;;;2.83;;
40997;SDS011;26740;45.944;12.480;2023-09-18T09:21:53;4.72;;;2.83;;
40997;SDS011;26740;45.944;12.480;2023-09-18T09:24:22;3.20;;;2.90;;
40997;SDS011;26740;45.944;12.480;2023-09-18T09:27:00;5.32;;;2.55;;
40997;SDS011;26740;45.944;12.480;2023-09-18T09:29:28;3.53;;;3.33;;
40997;SDS011;26740;45.944;12.480;2023-09-18T09:31:54;4.18;;;3.78;;
40997;SDS011;26740;45.944;12.480;2023-09-18T09:34:24;7.35;;;3.75;;
40997;SDS011;26740;45.944;12.480;2023-09-18T09:36:54;3.65;;;3.25;;
40997;SDS011;26740;45.944;12.480;2023-09-18T09:39:20;4.20;;;3.83;;
40997;SDS011;26740;45.944;12.480;2023-09-18T09:41:50;5.00;;;4.00;;
40997;SDS011;26740;45.944;12.480;2023-09-18T09:44:15;3.40;;;3.10;;
40997;SDS011;26740;45.944;12.480;2023-09-18T09:46:47;5.22;;;3.95;;
40997;SDS011;26740;45.944;12.480;2023-09-18T09:49:13;9.00;;;4.10;;
40997;SDS011;26740;45.944;12.480;2023-09-18T09:51:40;3.80;;;3.45;;
40997;SDS011;26740;45.944;12.480;2023-09-18T09:54:06;4.25;;;3.40;;
40997;SDS011;26740;45.944;12.480;2023-09-18T09:56:42;6.60;;;3.20;;
40997;SDS011;26740;45.944;12.480;2023-09-18T09:59:08;4.18;;;3.30;;
40997;SDS011;26740;45.944;12.480;2023-09-18T10:01:34;3.60;;;3.40;;
40997;SDS011;26740;45.944;12.480;2023-09-18T10:04:01;3.28;;;3.08;;
40997;SDS011;26740;45.944;12.480;2023-09-18T10:06:29;5.43;;;3.65;;
40997;SDS011;26740;45.944;12.480;2023-09-18T10:08:57;4.78;;;3.65;;
40997;SDS011;26740;45.944;12.480;2023-09-18T10:11:22;6.38;;;3.65;;
40997;SDS011;26740;45.944;12.480;2023-09-18T10:13:53;4.45;;;3.88;;
40997;SDS011;26740;45.944;12.480;2023-09-18T10:16:20;6.95;;;3.45;;
40997;SDS011;26740;45.944;12.480;2023-09-18T10:21:30;4.22;;;3.83;;
40997;SDS011;26740;45.944;12.480;2023-09-18T10:24:05;3.42;;;3.13;;
40997;SDS011;26740;45.944;12.480;2023-09-18T10:26:32;3.70;;;3.40;;
40997;SDS011;26740;45.944;12.480;2023-09-18T10:28:58;3.60;;;3.30;;
40997;SDS011;26740;45.944;12.480;2023-09-18T10:31:28;4.03;;;3.73;;
40997;SDS011;26740;45.944;12.480;2023-09-18T10:33:55;4.53;;;3.50;;
40997;SDS011;26740;45.944;12.480;2023-09-18T10:36:21;4.43;;;3.30;;
40997;SDS011;26740;45.944;12.480;2023-09-18T10:38:47;3.38;;;3.17;;
40997;SDS011;26740;45.944;12.480;2023-09-18T10:41:17;5.72;;;3.17;;
40997;SDS011;26740;45.944;12.480;2023-09-18T10:43:45;4.38;;;3.60;;
40997;SDS011;26740;45.944;12.480;2023-09-18T10:46:11;3.90;;;3.50;;
40997;SDS011;26740;45.944;12.480;2023-09-18T10:48:39;3.97;;;3.63;;
40997;SDS011;26740;45.944;12.480;2023-09-18T10:51:06;4.40;;;4.00;;
40997;SDS011;26740;45.944;12.480;2023-09-18T10:53:31;4.07;;;3.72;;
40997;SDS011;26740;45.944;12.480;2023-09-18T10:55:57;4.57;;;4.20;;
40997;SDS011;26740;45.944;12.480;2023-09-18T10:58:23;4.40;;;3.90;;
40997;SDS011;26740;45.944;12.480;2023-09-18T11:06:06;4.57;;;4.28;;
40997;SDS011;26740;45.944;12.480;2023-09-18T11:08:33;4.82;;;3.55;;
40997;SDS011;26740;45.944;12.480;2023-09-18T11:11:08;4.10;;;3.80;;
40997;SDS011;26740;45.944;12.480;2023-09-18T11:13:39;4.70;;;4.30;;
40997;SDS011;26740;45.944;12.480;2023-09-18T11:18:53;4.22;;;3.92;;
40997;SDS011;26740;45.944;12.480;2023-09-18T11:21:23;4.53;;;4.13;;
40997;SDS011;26740;45.944;12.480;2023-09-18T11:26:15;3.73;;;3.53;;
40997;SDS011;26740;45.944;12.480;2023-09-18T11:28:40;4.13;;;3.75;;
40997;SDS011;26740;45.944;12.480;2023-09-18T11:31:08;4.43;;;3.90;;
40997;SDS011;26740;45.944;12.480;2023-09-18T11:33:37;4.40;;;3.47;;
40997;SDS011;26740;45.944;12.480;2023-09-18T11:36:12;4.28;;;3.97;;
40997;SDS011;26740;45.944;12.480;2023-09-18T11:41:22;3.60;;;3.22;;
40997;SDS011;26740;45.944;12.480;2023-09-18T11:43:48;4.10;;;3.70;;
40997;SDS011;26740;45.944;12.480;2023-09-18T11:46:17;3.83;;;2.90;;
40997;SDS011;26740;45.944;12.480;2023-09-18T11:48:43;5.85;;;3.08;;
40997;SDS011;26740;45.944;12.480;2023-09-18T11:51:08;5.13;;;3.20;;
40997;SDS011;26740;45.944;12.480;2023-09-18T11:53:36;4.03;;;2.60;;
40997;SDS011;26740;45.944;12.480;2023-09-18T11:56:09;3.75;;;3.45;;
40997;SDS011;26740;45.944;12.480;2023-09-18T11:58:49;15.13;;;3.90;;
40997;SDS011;26740;45.944;12.480;2023-09-18T12:01:14;3.50;;;3.20;;
40997;SDS011;26740;45.944;12.480;2023-09-18T12:03:42;3.47;;;3.20;;
40997;SDS011;26740;45.944;12.480;2023-09-18T12:06:08;5.50;;;3.50;;
40997;SDS011;26740;45.944;12.480;2023-09-18T12:08:34;4.40;;;3.97;;
40997;SDS011;26740;45.944;12.480;2023-09-18T12:11:03;3.28;;;2.95;;
40997;SDS011;26740;45.944;12.480;2023-09-18T12:13:30;3.42;;;3.10;;
40997;SDS011;26740;45.944;12.480;2023-09-18T12:16:02;4.32;;;3.92;;
40997;SDS011;26740;45.944;12.480;2023-09-18T12:18:31;3.17;;;2.83;;
40997;SDS011;26740;45.944;12.480;2023-09-18T12:20:57;3.40;;;2.65;;
40997;SDS011;26740;45.944;12.480;2023-09-18T12:23:24;3.45;;;3.15;;
40997;SDS011;26740;45.944;12.480;2023-09-18T12:25:50;3.78;;;2.90;;
40997;SDS011;26740;45.944;12.480;2023-09-18T12:28:16;3.53;;;3.22;;
40997;SDS011;26740;45.944;12.480;2023-09-18T12:30:42;3.00;;;2.47;;
40997;SDS011;26740;45.944;12.480;2023-09-18T12:33:08;3.20;;;2.92;;
40997;SDS011;26740;45.944;12.480;2023-09-18T12:35:34;3.13;;;2.92;;
40997;SDS011;26740;45.944;12.480;2023-09-18T12:37:59;5.25;;;2.60;;
40997;SDS011;26740;45.944;12.480;2023-09-18T12:40:29;2.92;;;2.72;;
40997;SDS011;26740;45.944;12.480;2023-09-18T12:42:58;3.05;;;2.85;;
40997;SDS011;26740;45.944;12.480;2023-09-18T12:45:25;3.58;;;2.47;;
40997;SDS011;26740;45.944;12.480;2023-09-18T12:47:50;2.70;;;2.47;;
40997;SDS011;26740;45.944;12.480;2023-09-18T12:50:17;2.80;;;2.60;;
40997;SDS011;26740;45.944;12.480;2023-09-18T12:52:42;3.00;;;2.80;;
40997;SDS011;26740;45.944;12.480;2023-09-18T12:55:08;3.15;;;2.85;;
40997;SDS011;26740;45.944;12.480;2023-09-18T12:57:33;7.32;;;3.45;;
40997;SDS011;26740;45.944;12.480;2023-09-18T12:59:59;3.03;;;2.70;;
40997;SDS011;26740;45.944;12.480;2023-09-18T13:02:28;4.53;;;3.15;;
40997;SDS011;26740;45.944;12.480;2023-09-18T13:04:54;4.85;;;3.55;;
40997;SDS011;26740;45.944;12.480;2023-09-18T13:07:20;3.28;;;2.92;;
40997;SDS011;26740;45.944;12.480;2023-09-18T13:10:03;3.50;;;2.95;;
40997;SDS011;26740;45.944;12.480;2023-09-18T13:15:04;4.90;;;4.38;;
40997;SDS011;26740;45.944;12.480;2023-09-18T13:17:40;3.60;;;3.30;;
40997;SDS011;26740;45.944;12.480;2023-09-18T13:20:10;6.18;;;3.53;;
40997;SDS011;26740;45.944;12.480;2023-09-18T13:22:36;5.65;;;3.63;;
40997;SDS011;26740;45.944;12.480;2023-09-18T13:25:02;4.93;;;4.00;;
40997;SDS011;26740;45.944;12.480;2023-09-18T13:27:27;3.75;;;3.50;;
40997;SDS011;26740;45.944;12.480;2023-09-18T13:29:53;4.00;;;3.70;;
40997;SDS011;26740;45.944;12.480;2023-09-18T13:32:21;4.03;;;3.28;;
40997;SDS011;26740;45.944;12.480;2023-09-18T13:34:47;5.18;;;3.45;;
40997;SDS011;26740;45.944;12.480;2023-09-18T13:37:13;6.07;;;3.80;;
40997;SDS011;26740;45.944;12.480;2023-09-18T13:39:39;4.55;;;2.83;;
40997;SDS011;26740;45.944;12.480;2023-09-18T13:42:04;7.22;;;3.35;;
40997;SDS011;26740;45.944;12.480;2023-09-18T13:44:30;3.08;;;2.88;;
40997;SDS011;26740;45.944;12.480;2023-09-18T13:46:56;4.65;;;3.30;;
40997;SDS011;26740;45.944;12.480;2023-09-18T13:49:21;5.15;;;2.95;;
40997;SDS011;26740;45.944;12.480;2023-09-18T13:51:47;3.55;;;3.20;;
40997;SDS011;26740;45.944;12.480;2023-09-18T13:54:15;4.35;;;3.08;;
40997;SDS011;26740;45.944;12.480;2023-09-18T13:56:41;3.05;;;2.83;;
40997;SDS011;26740;45.944;12.480;2023-09-18T13:59:08;4.82;;;3.00;;
40997;SDS011;26740;45.944;12.480;2023-09-18T14:01:35;5.03;;;3.78;;
40997;SDS011;26740;45.944;12.480;2023-09-18T14:04:00;4.93;;;3.42;;
40997;SDS011;26740;45.944;12.480;2023-09-18T14:06:25;6.22;;;3.55;;
40997;SDS011;26740;45.944;12.480;2023-09-18T14:08:51;5.70;;;2.50;;
40997;SDS011;26740;45.944;12.480;2023-09-18T14:11:17;3.42;;;3.10;;
40997;SDS011;26740;45.944;12.480;2023-09-18T14:13:43;4.80;;;2.50;;
40997;SDS011;26740;45.944;12.480;2023-09-18T14:16:08;2.97;;;2.70;;
40997;SDS011;26740;45.944;12.480;2023-09-18T14:18:35;2.67;;;2.47;;
40997;SDS011;26740;45.944;12.480;2023-09-18T14:21:01;3.85;;;2.78;;
40997;SDS011;26740;45.944;12.480;2023-09-18T14:23:26;3.90;;;2.83;;
40997;SDS011;26740;45.944;12.480;2023-09-18T14:25:52;3.65;;;2.63;;
40997;SDS011;26740;45.944;12.480;2023-09-18T14:28:17;5.53;;;2.38;;
40997;SDS011;26740;45.944;12.480;2023-09-18T14:30:43;2.60;;;2.40;;
40997;SDS011;26740;45.944;12.480;2023-09-18T14:33:08;4.10;;;2.45;;
40997;SDS011;26740;45.944;12.480;2023-09-18T14:35:34;3.30;;;2.67;;
40997;SDS011;26740;45.944;12.480;2023-09-18T14:38:01;2.55;;;2.35;;
40997;SDS011;26740;45.944;12.480;2023-09-18T14:40:29;4.82;;;2.28;;
40997;SDS011;26740;45.944;12.480;2023-09-18T14:42:54;3.72;;;2.67;;
40997;SDS011;26740;45.944;12.480;2023-09-18T14:45:19;4.10;;;2.97;;
40997;SDS011;26740;45.944;12.480;2023-09-18T14:47:45;2.60;;;2.40;;
40997;SDS011;26740;45.944;12.480;2023-09-18T14:50:11;2.50;;;2.30;;
40997;SDS011;26740;45.944;12.480;2023-09-18T14:52:36;5.18;;;2.88;;
40997;SDS011;26740;45.944;12.480;2023-09-18T14:55:02;3.20;;;2.90;;
40997;SDS011;26740;45.944;12.480;2023-09-18T14:57:30;5.40;;;2.40;;